Map

Track Data

SID SEASON NUMBER BASIN SUBBASIN NAME ISO_TIME NATURE LAT LON WMO_WIND WMO_PRES WMO_AGENCY TRACK_TYPE DIST2LAND LANDFALL IFLAG USA_AGENCY USA_ATCF_ID USA_LAT USA_LON USA_RECORD USA_STATUS USA_WIND USA_PRES USA_SSHS USA_R34_NE USA_R34_SE USA_R34_SW USA_R34_NW USA_R50_NE USA_R50_SE USA_R50_SW USA_R50_NW USA_R64_NE USA_R64_SE USA_R64_SW USA_R64_NW USA_POCI USA_ROCI USA_RMW USA_EYE TOKYO_LAT TOKYO_LON TOKYO_GRADE TOKYO_WIND TOKYO_PRES TOKYO_R50_DIR TOKYO_R50_LONG TOKYO_R50_SHORT TOKYO_R30_DIR TOKYO_R30_LONG TOKYO_R30_SHORT TOKYO_LAND CMA_LAT CMA_LON CMA_CAT CMA_WIND CMA_PRES HKO_LAT HKO_LON HKO_CAT HKO_WIND HKO_PRES NEWDELHI_LAT NEWDELHI_LON NEWDELHI_GRADE NEWDELHI_WIND NEWDELHI_PRES NEWDELHI_CI NEWDELHI_DP NEWDELHI_POCI REUNION_LAT REUNION_LON REUNION_TYPE REUNION_WIND REUNION_PRES REUNION_TNUM REUNION_CI REUNION_RMW REUNION_R34_NE REUNION_R34_SE REUNION_R34_SW REUNION_R34_NW REUNION_R50_NE REUNION_R50_SE REUNION_R50_SW REUNION_R50_NW REUNION_R64_NE REUNION_R64_SE REUNION_R64_SW REUNION_R64_NW BOM_LAT BOM_LON BOM_TYPE BOM_WIND BOM_PRES BOM_TNUM BOM_CI BOM_RMW BOM_R34_NE BOM_R34_SE BOM_R34_SW BOM_R34_NW BOM_R50_NE BOM_R50_SE BOM_R50_SW BOM_R50_NW BOM_R64_NE BOM_R64_SE BOM_R64_SW BOM_R64_NW BOM_ROCI BOM_POCI BOM_EYE BOM_POS_METHOD BOM_PRES_METHOD NADI_LAT NADI_LON NADI_CAT NADI_WIND NADI_PRES WELLINGTON_LAT WELLINGTON_LON WELLINGTON_WIND WELLINGTON_PRES DS824_LAT DS824_LON DS824_STAGE DS824_WIND DS824_PRES TD9636_LAT TD9636_LON TD9636_STAGE TD9636_WIND TD9636_PRES TD9635_LAT TD9635_LON TD9635_WIND TD9635_PRES TD9635_ROCI NEUMANN_LAT NEUMANN_LON NEUMANN_CLASS NEUMANN_WIND NEUMANN_PRES MLC_LAT MLC_LON MLC_CLASS MLC_WIND MLC_PRES USA_GUST BOM_GUST BOM_GUST_PER REUNION_GUST REUNION_GUST_PER USA_SEAHGT USA_SEARAD_NE USA_SEARAD_SE USA_SEARAD_SW USA_SEARAD_NW STORM_SPEED STORM_DIR
1919212N16111 1919 20 WP MM NOT_NAMED 1919-07-30 22:00:00 NR 16.4000 111.200 main 256 253 __________O___ -1 16.4000 111.200 4 4 62
1919212N16111 1919 20 WP MM NOT_NAMED 1919-07-31 00:00:00 NR 16.4556 111.311 main 253 253 __________P___ -1 16.4556 111.311 4 4 62
1919212N16111 1919 20 WP MM NOT_NAMED 1919-07-31 03:00:00 NR 16.5368 111.473 main 265 256 __________P___ -1 16.5368 111.473 4 3 63
1919212N16111 1919 20 WP MM NOT_NAMED 1919-07-31 06:00:00 NR 16.6126 111.624 main 263 262 __________P___ -1 16.6126 111.624 4 3 62
1919212N16111 1919 20 WP MM NOT_NAMED 1919-07-31 09:00:00 NR 16.6800 111.760 main 268 268 __________P___ -1 16.6800 111.760 4 3 63
1919212N16111 1919 20 WP MM NOT_NAMED 1919-07-31 10:00:00 NR 16.7000 111.800 main 268 268 __________O___ -1 16.7000 111.800 4 2 63
1919212N16111 1919 20 WP MM NOT_NAMED 1919-07-31 12:00:00 NR 16.7367 111.874 main 274 265 __________P___ -1 16.7367 111.874 4 2 62
1919212N16111 1919 20 WP MM NOT_NAMED 1919-07-31 15:00:00 NR 16.7914 111.984 main 271 270 __________P___ -1 16.7914 111.984 4 3 63
1919212N16111 1919 20 WP MM NOT_NAMED 1919-07-31 18:00:00 NR 16.8599 112.122 main 270 270 __________P___ -1 16.8599 112.122 4 4 62
1919212N16111 1919 20 WP MM NOT_NAMED 1919-07-31 21:00:00 NR 16.9580 112.317 main 276 276 __________P___ -1 16.9580 112.317 4 5 62
1919212N16111 1919 20 WP MM NOT_NAMED 1919-07-31 22:00:00 NR 17.0000 112.400 main 284 284 __________O___ -1 17.0000 112.400 7 7 66
1919212N16111 1919 20 WP MM NOT_NAMED 1919-08-01 00:00:00 NR 17.0921 112.630 main 292 300 __________P___ -1 17.0921 112.630 7 8 67
1919212N16111 1919 20 WP MM NOT_NAMED 1919-08-01 03:00:00 NR 17.2614 113.040 main 313 322 __________P___ -1 17.2614 113.040 7 9 65
1919212N16111 1919 20 WP MM NOT_NAMED 1919-08-01 06:00:00 NR 17.4675 113.475 main 348 348 __________P___ -1 17.4675 113.475 7 9 61
1919212N16111 1919 20 WP MM NOT_NAMED 1919-08-01 09:00:00 NR 17.7107 113.881 main 372 365 __________P___ -1 17.7107 113.881 7 9 56
1919212N16111 1919 20 WP MM NOT_NAMED 1919-08-01 10:00:00 NR 17.8000 114.000 main 374 374 __________O___ -1 17.8000 114.000 7 8 54
1919212N16111 1919 20 WP MM NOT_NAMED 1919-08-01 12:00:00 NR 17.9564 114.236 main 381 390 __________P___ -1 17.9564 114.236 7 8 51
1919212N16111 1919 20 WP MM NOT_NAMED 1919-08-01 15:00:00 NR 18.2220 114.541 main 400 405 __________P___ -1 18.2220 114.541 7 8 40
1919212N16111 1919 20 WP MM NOT_NAMED 1919-08-01 18:00:00 NR 18.5442 114.748 main 407 383 __________P___ -1 18.5442 114.748 7 8 20
1919212N16111 1919 20 WP MM NOT_NAMED 1919-08-01 21:00:00 NR 18.9451 114.816 main 383 361 __________P___ -1 18.9451 114.816 7 8 5
1919212N16111 1919 20 WP MM NOT_NAMED 1919-08-01 22:00:00 NR 19.1000 114.800 main 361 326 __________O___ -1 19.1000 114.800 2 10 349
1919212N16111 1919 20 WP MM NOT_NAMED 1919-08-02 00:00:00 NR 19.4428 114.711 main 326 257 __________P___ -1 19.4428 114.711 2 12 340
1919212N16111 1919 20 WP MM NOT_NAMED 1919-08-02 03:00:00 NR 20.0328 114.439 main 257 169 __________P___ -1 20.0328 114.439 2 14 333
1919212N16111 1919 20 WP MM NOT_NAMED 1919-08-02 06:00:00 NR 20.6857 114.042 main 169 83 __________P___ -1 20.6857 114.042 2 16 329
1919212N16111 1919 20 WP MM NOT_NAMED 1919-08-02 09:00:00 NR 21.3702 113.567 main 83 53 __________P___ -1 21.3702 113.567 2 16 327
1919212N16111 1919 20 WP MM NOT_NAMED 1919-08-02 10:00:00 NR 21.6000 113.400 main 53 0 __________O___ -1 21.6000 113.400 2 17 326
1919212N16111 1919 20 WP MM NOT_NAMED 1919-08-02 12:00:00 NR 22.0570 113.061 main 0 0 __________P___ -1 22.0570 113.061 2 17 325
1919212N16111 1919 20 WP MM NOT_NAMED 1919-08-02 15:00:00 NR 22.7361 112.543 main 0 0 __________P___ -1 22.7361 112.543 2 17 325
1919212N16111 1919 20 WP MM NOT_NAMED 1919-08-02 18:00:00 NR 23.4091 112.016 main 0 0 __________P___ -1 23.4091 112.016 2 17 324
1919212N16111 1919 20 WP MM NOT_NAMED 1919-08-02 21:00:00 NR 24.0778 111.480 main 0 0 __________P___ -1 24.0778 111.480 2 17 324
1919212N16111 1919 20 WP MM NOT_NAMED 1919-08-02 22:00:00 NR 24.3000 111.300 main 0 __________O___ -1 24.3000 111.300 7 17 323

Digital Typhoon Data and Search

About IBTrACS Database

This database is a web-friendly format of International Best Track Archive for Climate Stewardship (IBTrACS), a global best track data archive curated by NOAA dating back to 1842.

Updated: 2021-12-03